sensor_id;sensor_type;location;lat;lon;timestamp;P1;durP1;ratioP1;P2;durP2;ratioP2
41883;SDS011;27566;50.930;5.328;2023-08-17T00:01:41;7.82;;;4.75;;
41883;SDS011;27566;50.930;5.328;2023-08-17T00:04:06;8.05;;;5.05;;
41883;SDS011;27566;50.930;5.328;2023-08-17T00:06:32;10.15;;;5.68;;
41883;SDS011;27566;50.930;5.328;2023-08-17T00:08:58;6.70;;;4.80;;
41883;SDS011;27566;50.930;5.328;2023-08-17T00:11:25;10.10;;;5.78;;
41883;SDS011;27566;50.930;5.328;2023-08-17T00:13:50;6.90;;;4.90;;
41883;SDS011;27566;50.930;5.328;2023-08-17T00:16:16;7.47;;;5.07;;
41883;SDS011;27566;50.930;5.328;2023-08-17T00:18:42;9.13;;;4.38;;
41883;SDS011;27566;50.930;5.328;2023-08-17T00:21:08;8.25;;;4.30;;
41883;SDS011;27566;50.930;5.328;2023-08-17T00:23:34;7.97;;;5.03;;
41883;SDS011;27566;50.930;5.328;2023-08-17T00:26:00;7.65;;;4.43;;
41883;SDS011;27566;50.930;5.328;2023-08-17T00:28:26;9.73;;;5.18;;
41883;SDS011;27566;50.930;5.328;2023-08-17T00:30:52;9.88;;;4.88;;
41883;SDS011;27566;50.930;5.328;2023-08-17T00:33:18;6.60;;;4.32;;
41883;SDS011;27566;50.930;5.328;2023-08-17T00:35:44;8.13;;;4.20;;
41883;SDS011;27566;50.930;5.328;2023-08-17T00:38:11;6.57;;;4.03;;
41883;SDS011;27566;50.930;5.328;2023-08-17T00:40:37;9.43;;;4.53;;
41883;SDS011;27566;50.930;5.328;2023-08-17T00:43:03;7.88;;;4.40;;
41883;SDS011;27566;50.930;5.328;2023-08-17T00:45:30;10.73;;;4.72;;
41883;SDS011;27566;50.930;5.328;2023-08-17T00:47:57;10.10;;;5.60;;
41883;SDS011;27566;50.930;5.328;2023-08-17T00:50:24;9.70;;;4.40;;
41883;SDS011;27566;50.930;5.328;2023-08-17T00:52:51;6.88;;;4.38;;
41883;SDS011;27566;50.930;5.328;2023-08-17T00:55:18;6.22;;;3.67;;
41883;SDS011;27566;50.930;5.328;2023-08-17T00:57:44;7.53;;;3.97;;
41883;SDS011;27566;50.930;5.328;2023-08-17T01:00:11;6.57;;;4.05;;
41883;SDS011;27566;50.930;5.328;2023-08-17T01:02:38;8.40;;;4.32;;
41883;SDS011;27566;50.930;5.328;2023-08-17T01:05:07;6.03;;;3.78;;
41883;SDS011;27566;50.930;5.328;2023-08-17T01:07:33;6.20;;;3.85;;
41883;SDS011;27566;50.930;5.328;2023-08-17T01:09:59;13.05;;;4.65;;
41883;SDS011;27566;50.930;5.328;2023-08-17T01:12:30;8.02;;;4.15;;
41883;SDS011;27566;50.930;5.328;2023-08-17T01:18:18;7.15;;;3.42;;
41883;SDS011;27566;50.930;5.328;2023-08-17T01:20:21;8.15;;;4.28;;
41883;SDS011;27566;50.930;5.328;2023-08-17T01:22:50;6.72;;;3.67;;
41883;SDS011;27566;50.930;5.328;2023-08-17T01:25:18;8.40;;;4.43;;
41883;SDS011;27566;50.930;5.328;2023-08-17T01:27:45;12.60;;;3.85;;
41883;SDS011;27566;50.930;5.328;2023-08-17T01:30:12;7.47;;;3.83;;
41883;SDS011;27566;50.930;5.328;2023-08-17T01:35:16;9.63;;;4.18;;
41883;SDS011;27566;50.930;5.328;2023-08-17T01:37:50;10.15;;;4.38;;
41883;SDS011;27566;50.930;5.328;2023-08-17T01:40:18;6.10;;;4.30;;
41883;SDS011;27566;50.930;5.328;2023-08-17T01:42:44;6.88;;;3.30;;
41883;SDS011;27566;50.930;5.328;2023-08-17T01:45:10;9.43;;;4.22;;
41883;SDS011;27566;50.930;5.328;2023-08-17T01:47:36;10.40;;;4.03;;
41883;SDS011;27566;50.930;5.328;2023-08-17T01:50:02;6.38;;;3.83;;
41883;SDS011;27566;50.930;5.328;2023-08-17T01:52:28;8.70;;;3.80;;
41883;SDS011;27566;50.930;5.328;2023-08-17T01:54:54;8.68;;;4.78;;
41883;SDS011;27566;50.930;5.328;2023-08-17T01:57:20;6.30;;;3.78;;
41883;SDS011;27566;50.930;5.328;2023-08-17T01:59:46;7.47;;;3.60;;
41883;SDS011;27566;50.930;5.328;2023-08-17T02:02:11;9.32;;;3.83;;
41883;SDS011;27566;50.930;5.328;2023-08-17T02:04:39;6.65;;;4.18;;
41883;SDS011;27566;50.930;5.328;2023-08-17T02:07:05;7.75;;;4.10;;
41883;SDS011;27566;50.930;5.328;2023-08-17T02:09:31;9.25;;;4.22;;
41883;SDS011;27566;50.930;5.328;2023-08-17T02:11:57;5.65;;;3.08;;
41883;SDS011;27566;50.930;5.328;2023-08-17T02:14:22;8.27;;;3.75;;
41883;SDS011;27566;50.930;5.328;2023-08-17T02:16:48;6.90;;;3.90;;
41883;SDS011;27566;50.930;5.328;2023-08-17T02:19:14;7.55;;;3.70;;
41883;SDS011;27566;50.930;5.328;2023-08-17T02:21:40;7.68;;;3.60;;
41883;SDS011;27566;50.930;5.328;2023-08-17T02:24:05;7.18;;;4.07;;
41883;SDS011;27566;50.930;5.328;2023-08-17T02:26:32;6.72;;;4.00;;
41883;SDS011;27566;50.930;5.328;2023-08-17T02:28:57;9.23;;;4.22;;
41883;SDS011;27566;50.930;5.328;2023-08-17T02:31:23;6.30;;;3.40;;
41883;SDS011;27566;50.930;5.328;2023-08-17T02:33:49;5.57;;;3.33;;
41883;SDS011;27566;50.930;5.328;2023-08-17T02:36:15;7.80;;;3.60;;
41883;SDS011;27566;50.930;5.328;2023-08-17T02:38:41;6.95;;;3.83;;
41883;SDS011;27566;50.930;5.328;2023-08-17T02:41:06;6.82;;;4.10;;
41883;SDS011;27566;50.930;5.328;2023-08-17T02:43:32;7.80;;;3.72;;
41883;SDS011;27566;50.930;5.328;2023-08-17T02:45:58;8.80;;;4.22;;
41883;SDS011;27566;50.930;5.328;2023-08-17T02:48:24;7.35;;;4.25;;
41883;SDS011;27566;50.930;5.328;2023-08-17T02:50:51;7.88;;;3.88;;
41883;SDS011;27566;50.930;5.328;2023-08-17T02:53:16;6.47;;;4.00;;
41883;SDS011;27566;50.930;5.328;2023-08-17T02:55:42;7.35;;;3.70;;
41883;SDS011;27566;50.930;5.328;2023-08-17T02:58:08;7.68;;;4.07;;
41883;SDS011;27566;50.930;5.328;2023-08-17T03:00:34;6.85;;;4.07;;
41883;SDS011;27566;50.930;5.328;2023-08-17T03:02:59;7.70;;;4.45;;
41883;SDS011;27566;50.930;5.328;2023-08-17T03:05:25;6.97;;;4.00;;
41883;SDS011;27566;50.930;5.328;2023-08-17T03:07:51;5.85;;;3.95;;
41883;SDS011;27566;50.930;5.328;2023-08-17T03:10:17;13.02;;;4.65;;
41883;SDS011;27566;50.930;5.328;2023-08-17T03:12:42;7.30;;;4.22;;
41883;SDS011;27566;50.930;5.328;2023-08-17T03:15:08;6.50;;;3.65;;
41883;SDS011;27566;50.930;5.328;2023-08-17T03:17:34;9.63;;;3.78;;
41883;SDS011;27566;50.930;5.328;2023-08-17T03:19:59;5.45;;;3.60;;
41883;SDS011;27566;50.930;5.328;2023-08-17T03:22:25;7.75;;;4.25;;
41883;SDS011;27566;50.930;5.328;2023-08-17T03:24:51;8.18;;;4.65;;
41883;SDS011;27566;50.930;5.328;2023-08-17T03:27:19;7.13;;;3.40;;
41883;SDS011;27566;50.930;5.328;2023-08-17T03:29:45;11.80;;;4.72;;
41883;SDS011;27566;50.930;5.328;2023-08-17T03:32:11;9.10;;;4.13;;
41883;SDS011;27566;50.930;5.328;2023-08-17T03:34:37;8.25;;;4.90;;
41883;SDS011;27566;50.930;5.328;2023-08-17T03:37:03;10.40;;;5.30;;
41883;SDS011;27566;50.930;5.328;2023-08-17T03:39:32;12.57;;;5.72;;
41883;SDS011;27566;50.930;5.328;2023-08-17T03:41:58;9.68;;;5.63;;
41883;SDS011;27566;50.930;5.328;2023-08-17T03:44:23;10.95;;;4.50;;
41883;SDS011;27566;50.930;5.328;2023-08-17T03:46:49;12.10;;;5.43;;
41883;SDS011;27566;50.930;5.328;2023-08-17T03:49:15;10.13;;;5.57;;
41883;SDS011;27566;50.930;5.328;2023-08-17T03:51:41;12.95;;;5.10;;
41883;SDS011;27566;50.930;5.328;2023-08-17T03:54:07;8.70;;;4.72;;
41883;SDS011;27566;50.930;5.328;2023-08-17T03:56:33;12.90;;;6.15;;
41883;SDS011;27566;50.930;5.328;2023-08-17T03:58:58;8.30;;;5.07;;
41883;SDS011;27566;50.930;5.328;2023-08-17T04:01:24;8.82;;;5.72;;
41883;SDS011;27566;50.930;5.328;2023-08-17T04:03:50;7.97;;;5.55;;
41883;SDS011;27566;50.930;5.328;2023-08-17T04:06:16;9.13;;;5.80;;
41883;SDS011;27566;50.930;5.328;2023-08-17T04:08:42;14.43;;;6.38;;
41883;SDS011;27566;50.930;5.328;2023-08-17T04:11:07;11.70;;;5.45;;
41883;SDS011;27566;50.930;5.328;2023-08-17T04:13:33;11.68;;;5.90;;
41883;SDS011;27566;50.930;5.328;2023-08-17T04:15:59;8.25;;;5.68;;
41883;SDS011;27566;50.930;5.328;2023-08-17T04:18:24;11.15;;;6.38;;
41883;SDS011;27566;50.930;5.328;2023-08-17T04:20:50;12.55;;;6.65;;
41883;SDS011;27566;50.930;5.328;2023-08-17T04:23:16;10.15;;;6.55;;
41883;SDS011;27566;50.930;5.328;2023-08-17T04:25:43;9.30;;;5.75;;
41883;SDS011;27566;50.930;5.328;2023-08-17T04:28:09;9.27;;;6.25;;
41883;SDS011;27566;50.930;5.328;2023-08-17T04:30:34;13.48;;;6.53;;
41883;SDS011;27566;50.930;5.328;2023-08-17T04:33:00;12.68;;;5.75;;
41883;SDS011;27566;50.930;5.328;2023-08-17T04:35:26;9.90;;;5.50;;
41883;SDS011;27566;50.930;5.328;2023-08-17T04:37:52;8.93;;;5.53;;
41883;SDS011;27566;50.930;5.328;2023-08-17T04:40:18;10.63;;;5.68;;
41883;SDS011;27566;50.930;5.328;2023-08-17T04:42:43;7.78;;;5.30;;
41883;SDS011;27566;50.930;5.328;2023-08-17T04:45:09;13.45;;;5.63;;
41883;SDS011;27566;50.930;5.328;2023-08-17T04:47:35;7.60;;;5.25;;
41883;SDS011;27566;50.930;5.328;2023-08-17T04:50:01;8.65;;;4.90;;
41883;SDS011;27566;50.930;5.328;2023-08-17T04:52:28;11.20;;;5.70;;
41883;SDS011;27566;50.930;5.328;2023-08-17T04:54:53;9.40;;;5.13;;
41883;SDS011;27566;50.930;5.328;2023-08-17T04:57:19;12.45;;;6.10;;
41883;SDS011;27566;50.930;5.328;2023-08-17T04:59:45;9.80;;;4.90;;
41883;SDS011;27566;50.930;5.328;2023-08-17T05:02:10;9.65;;;5.32;;
41883;SDS011;27566;50.930;5.328;2023-08-17T05:04:36;9.68;;;5.53;;
41883;SDS011;27566;50.930;5.328;2023-08-17T05:07:04;10.45;;;4.97;;
41883;SDS011;27566;50.930;5.328;2023-08-17T05:09:29;11.23;;;5.80;;
41883;SDS011;27566;50.930;5.328;2023-08-17T05:11:55;9.38;;;5.00;;
41883;SDS011;27566;50.930;5.328;2023-08-17T05:14:21;10.63;;;4.50;;
41883;SDS011;27566;50.930;5.328;2023-08-17T05:16:47;8.98;;;4.60;;
41883;SDS011;27566;50.930;5.328;2023-08-17T05:19:13;7.72;;;4.65;;
41883;SDS011;27566;50.930;5.328;2023-08-17T05:21:38;8.90;;;5.18;;
41883;SDS011;27566;50.930;5.328;2023-08-17T05:24:04;9.02;;;4.63;;
41883;SDS011;27566;50.930;5.328;2023-08-17T05:26:31;8.52;;;4.75;;
41883;SDS011;27566;50.930;5.328;2023-08-17T05:28:57;8.43;;;4.57;;
41883;SDS011;27566;50.930;5.328;2023-08-17T05:31:23;8.23;;;4.40;;
41883;SDS011;27566;50.930;5.328;2023-08-17T05:33:48;10.05;;;4.53;;
41883;SDS011;27566;50.930;5.328;2023-08-17T05:36:14;9.23;;;4.65;;
41883;SDS011;27566;50.930;5.328;2023-08-17T05:38:40;6.88;;;4.40;;
41883;SDS011;27566;50.930;5.328;2023-08-17T05:41:06;9.00;;;4.93;;
41883;SDS011;27566;50.930;5.328;2023-08-17T05:43:31;9.93;;;4.57;;
41883;SDS011;27566;50.930;5.328;2023-08-17T05:45:58;8.52;;;4.82;;
41883;SDS011;27566;50.930;5.328;2023-08-17T05:48:24;14.40;;;4.78;;
41883;SDS011;27566;50.930;5.328;2023-08-17T05:50:50;8.10;;;4.75;;
41883;SDS011;27566;50.930;5.328;2023-08-17T05:53:16;7.25;;;4.38;;
41883;SDS011;27566;50.930;5.328;2023-08-17T05:55:42;6.75;;;4.35;;
41883;SDS011;27566;50.930;5.328;2023-08-17T05:58:08;10.95;;;5.38;;
41883;SDS011;27566;50.930;5.328;2023-08-17T06:00:33;11.23;;;4.60;;
41883;SDS011;27566;50.930;5.328;2023-08-17T06:03:00;8.45;;;4.43;;
41883;SDS011;27566;50.930;5.328;2023-08-17T06:05:29;10.85;;;5.15;;
41883;SDS011;27566;50.930;5.328;2023-08-17T06:07:55;10.68;;;5.32;;
41883;SDS011;27566;50.930;5.328;2023-08-17T06:10:22;8.80;;;4.68;;
41883;SDS011;27566;50.930;5.328;2023-08-17T06:12:55;9.10;;;5.03;;
41883;SDS011;27566;50.930;5.328;2023-08-17T06:15:22;11.90;;;5.28;;
41883;SDS011;27566;50.930;5.328;2023-08-17T06:17:48;9.90;;;6.13;;
41883;SDS011;27566;50.930;5.328;2023-08-17T06:20:17;10.27;;;5.20;;
41883;SDS011;27566;50.930;5.328;2023-08-17T06:22:43;8.73;;;4.97;;
41883;SDS011;27566;50.930;5.328;2023-08-17T06:25:10;7.80;;;4.63;;
41883;SDS011;27566;50.930;5.328;2023-08-17T06:27:36;10.07;;;5.28;;
41883;SDS011;27566;50.930;5.328;2023-08-17T06:30:02;14.15;;;7.03;;
41883;SDS011;27566;50.930;5.328;2023-08-17T06:32:31;6.82;;;4.88;;
41883;SDS011;27566;50.930;5.328;2023-08-17T06:34:57;14.05;;;6.75;;
41883;SDS011;27566;50.930;5.328;2023-08-17T06:37:23;14.95;;;6.38;;
41883;SDS011;27566;50.930;5.328;2023-08-17T06:39:49;14.90;;;8.73;;
41883;SDS011;27566;50.930;5.328;2023-08-17T06:42:14;15.93;;;8.90;;
41883;SDS011;27566;50.930;5.328;2023-08-17T06:44:40;13.95;;;7.40;;
41883;SDS011;27566;50.930;5.328;2023-08-17T06:47:06;16.00;;;8.68;;
41883;SDS011;27566;50.930;5.328;2023-08-17T06:49:32;15.13;;;8.15;;
41883;SDS011;27566;50.930;5.328;2023-08-17T06:51:57;18.63;;;9.45;;
41883;SDS011;27566;50.930;5.328;2023-08-17T06:54:23;11.52;;;6.47;;
41883;SDS011;27566;50.930;5.328;2023-08-17T06:56:49;14.32;;;7.10;;
41883;SDS011;27566;50.930;5.328;2023-08-17T06:59:14;18.27;;;7.75;;
41883;SDS011;27566;50.930;5.328;2023-08-17T07:01:40;16.00;;;7.72;;
41883;SDS011;27566;50.930;5.328;2023-08-17T07:04:06;14.25;;;8.98;;
41883;SDS011;27566;50.930;5.328;2023-08-17T07:06:32;17.75;;;9.50;;
41883;SDS011;27566;50.930;5.328;2023-08-17T07:08:58;16.17;;;11.02;;
41883;SDS011;27566;50.930;5.328;2023-08-17T07:11:24;14.60;;;8.45;;
41883;SDS011;27566;50.930;5.328;2023-08-17T07:13:51;15.95;;;9.85;;
41883;SDS011;27566;50.930;5.328;2023-08-17T07:16:16;28.05;;;12.20;;
41883;SDS011;27566;50.930;5.328;2023-08-17T07:18:42;19.90;;;12.07;;
41883;SDS011;27566;50.930;5.328;2023-08-17T07:21:08;19.58;;;11.63;;
41883;SDS011;27566;50.930;5.328;2023-08-17T07:23:34;22.48;;;12.45;;
41883;SDS011;27566;50.930;5.328;2023-08-17T07:25:59;22.25;;;12.82;;
41883;SDS011;27566;50.930;5.328;2023-08-17T07:28:25;21.83;;;13.65;;
41883;SDS011;27566;50.930;5.328;2023-08-17T07:30:51;19.92;;;13.18;;
41883;SDS011;27566;50.930;5.328;2023-08-17T07:33:17;24.80;;;14.02;;
41883;SDS011;27566;50.930;5.328;2023-08-17T07:35:42;23.00;;;13.52;;
41883;SDS011;27566;50.930;5.328;2023-08-17T07:38:08;22.00;;;15.00;;
41883;SDS011;27566;50.930;5.328;2023-08-17T07:40:34;21.85;;;14.43;;
41883;SDS011;27566;50.930;5.328;2023-08-17T07:43:00;22.25;;;14.13;;
41883;SDS011;27566;50.930;5.328;2023-08-17T07:45:26;22.42;;;13.15;;
41883;SDS011;27566;50.930;5.328;2023-08-17T07:47:52;22.02;;;12.10;;
41883;SDS011;27566;50.930;5.328;2023-08-17T07:50:18;22.35;;;12.30;;
41883;SDS011;27566;50.930;5.328;2023-08-17T07:52:45;20.15;;;13.68;;
41883;SDS011;27566;50.930;5.328;2023-08-17T07:55:10;20.13;;;12.60;;
41883;SDS011;27566;50.930;5.328;2023-08-17T07:57:36;26.27;;;14.75;;
41883;SDS011;27566;50.930;5.328;2023-08-17T08:00:02;23.25;;;13.05;;
41883;SDS011;27566;50.930;5.328;2023-08-17T08:02:28;22.75;;;11.63;;
41883;SDS011;27566;50.930;5.328;2023-08-17T08:04:54;19.95;;;12.93;;
41883;SDS011;27566;50.930;5.328;2023-08-17T08:07:22;20.33;;;11.18;;
41883;SDS011;27566;50.930;5.328;2023-08-17T08:09:48;14.85;;;10.25;;
41883;SDS011;27566;50.930;5.328;2023-08-17T08:12:13;22.27;;;12.05;;
41883;SDS011;27566;50.930;5.328;2023-08-17T08:14:39;22.77;;;12.02;;
41883;SDS011;27566;50.930;5.328;2023-08-17T08:17:05;17.52;;;11.07;;
41883;SDS011;27566;50.930;5.328;2023-08-17T08:19:31;22.45;;;11.15;;
41883;SDS011;27566;50.930;5.328;2023-08-17T08:21:58;23.52;;;10.95;;
41883;SDS011;27566;50.930;5.328;2023-08-17T08:24:24;21.95;;;11.50;;
41883;SDS011;27566;50.930;5.328;2023-08-17T08:26:50;24.05;;;12.27;;
41883;SDS011;27566;50.930;5.328;2023-08-17T08:29:18;21.98;;;13.85;;
41883;SDS011;27566;50.930;5.328;2023-08-17T08:31:43;19.35;;;12.02;;
41883;SDS011;27566;50.930;5.328;2023-08-17T08:34:09;19.80;;;13.25;;
41883;SDS011;27566;50.930;5.328;2023-08-17T08:36:35;23.15;;;12.02;;
41883;SDS011;27566;50.930;5.328;2023-08-17T08:39:00;25.58;;;13.75;;
41883;SDS011;27566;50.930;5.328;2023-08-17T08:41:26;21.42;;;14.13;;
41883;SDS011;27566;50.930;5.328;2023-08-17T08:43:53;23.33;;;13.65;;
41883;SDS011;27566;50.930;5.328;2023-08-17T08:46:19;19.77;;;13.88;;
41883;SDS011;27566;50.930;5.328;2023-08-17T08:48:47;25.38;;;16.02;;
41883;SDS011;27566;50.930;5.328;2023-08-17T08:51:16;23.27;;;14.30;;
41883;SDS011;27566;50.930;5.328;2023-08-17T08:53:51;22.38;;;15.38;;
41883;SDS011;27566;50.930;5.328;2023-08-17T08:56:24;23.27;;;14.57;;
41883;SDS011;27566;50.930;5.328;2023-08-17T08:58:50;30.55;;;15.98;;
41883;SDS011;27566;50.930;5.328;2023-08-17T09:01:17;25.17;;;16.05;;
41883;SDS011;27566;50.930;5.328;2023-08-17T09:03:44;25.60;;;16.95;;
41883;SDS011;27566;50.930;5.328;2023-08-17T09:06:12;24.85;;;16.30;;
41883;SDS011;27566;50.930;5.328;2023-08-17T09:08:39;26.33;;;14.90;;
41883;SDS011;27566;50.930;5.328;2023-08-17T09:11:06;23.45;;;16.08;;
41883;SDS011;27566;50.930;5.328;2023-08-17T09:13:32;25.83;;;16.40;;
41883;SDS011;27566;50.930;5.328;2023-08-17T09:15:58;24.48;;;15.73;;
41883;SDS011;27566;50.930;5.328;2023-08-17T09:18:26;23.98;;;17.45;;
41883;SDS011;27566;50.930;5.328;2023-08-17T09:20:52;23.60;;;16.08;;
41883;SDS011;27566;50.930;5.328;2023-08-17T09:23:18;28.92;;;16.60;;
41883;SDS011;27566;50.930;5.328;2023-08-17T09:25:46;20.85;;;14.38;;
41883;SDS011;27566;50.930;5.328;2023-08-17T09:28:16;24.50;;;16.02;;
41883;SDS011;27566;50.930;5.328;2023-08-17T09:30:53;17.85;;;14.43;;
41883;SDS011;27566;50.930;5.328;2023-08-17T09:33:32;24.33;;;14.75;;
41883;SDS011;27566;50.930;5.328;2023-08-17T09:35:58;19.20;;;14.68;;
41883;SDS011;27566;50.930;5.328;2023-08-17T09:38:25;18.33;;;14.77;;
41883;SDS011;27566;50.930;5.328;2023-08-17T09:40:51;19.27;;;15.32;;
41883;SDS011;27566;50.930;5.328;2023-08-17T09:43:17;18.70;;;15.40;;
41883;SDS011;27566;50.930;5.328;2023-08-17T09:45:45;23.17;;;18.00;;
41883;SDS011;27566;50.930;5.328;2023-08-17T09:48:15;19.52;;;15.65;;
41883;SDS011;27566;50.930;5.328;2023-08-17T09:50:42;22.30;;;16.73;;
41883;SDS011;27566;50.930;5.328;2023-08-17T09:53:13;24.98;;;16.17;;
41883;SDS011;27566;50.930;5.328;2023-08-17T09:55:40;22.70;;;17.40;;
41883;SDS011;27566;50.930;5.328;2023-08-17T09:58:07;23.77;;;16.95;;
41883;SDS011;27566;50.930;5.328;2023-08-17T10:00:33;20.00;;;17.88;;
41883;SDS011;27566;50.930;5.328;2023-08-17T10:03:01;20.92;;;16.60;;
41883;SDS011;27566;50.930;5.328;2023-08-17T10:05:31;19.23;;;16.40;;
41883;SDS011;27566;50.930;5.328;2023-08-17T10:08:03;20.40;;;15.68;;
41883;SDS011;27566;50.930;5.328;2023-08-17T10:10:31;18.85;;;14.75;;
41883;SDS011;27566;50.930;5.328;2023-08-17T10:13:03;20.45;;;16.95;;
41883;SDS011;27566;50.930;5.328;2023-08-17T10:15:37;24.70;;;17.58;;
41883;SDS011;27566;50.930;5.328;2023-08-17T10:18:26;23.95;;;17.75;;
41883;SDS011;27566;50.930;5.328;2023-08-17T10:21:20;30.60;;;18.50;;
41883;SDS011;27566;50.930;5.328;2023-08-17T10:23:57;24.45;;;17.67;;
41883;SDS011;27566;50.930;5.328;2023-08-17T10:26:23;23.58;;;18.15;;
41883;SDS011;27566;50.930;5.328;2023-08-17T10:28:50;25.65;;;20.02;;
41883;SDS011;27566;50.930;5.328;2023-08-17T10:31:16;25.90;;;17.15;;
41883;SDS011;27566;50.930;5.328;2023-08-17T10:33:42;26.02;;;17.77;;
41883;SDS011;27566;50.930;5.328;2023-08-17T10:36:12;19.15;;;16.27;;
41883;SDS011;27566;50.930;5.328;2023-08-17T10:38:40;20.45;;;16.25;;
41883;SDS011;27566;50.930;5.328;2023-08-17T10:46:32;21.92;;;16.83;;
41883;SDS011;27566;50.930;5.328;2023-08-17T10:49:04;22.85;;;16.05;;
41883;SDS011;27566;50.930;5.328;2023-08-17T10:51:32;21.48;;;17.27;;
41883;SDS011;27566;50.930;5.328;2023-08-17T10:53:58;24.45;;;17.15;;
41883;SDS011;27566;50.930;5.328;2023-08-17T10:56:28;22.85;;;17.15;;
41883;SDS011;27566;50.930;5.328;2023-08-17T10:58:54;20.17;;;15.15;;
41883;SDS011;27566;50.930;5.328;2023-08-17T11:01:35;22.83;;;15.60;;
41883;SDS011;27566;50.930;5.328;2023-08-17T11:04:10;24.13;;;15.70;;
41883;SDS011;27566;50.930;5.328;2023-08-17T11:06:45;20.33;;;15.18;;
41883;SDS011;27566;50.930;5.328;2023-08-17T11:09:25;25.17;;;16.30;;
41883;SDS011;27566;50.930;5.328;2023-08-17T11:11:53;20.38;;;16.40;;
41883;SDS011;27566;50.930;5.328;2023-08-17T11:14:20;23.00;;;18.58;;
41883;SDS011;27566;50.930;5.328;2023-08-17T11:16:48;19.27;;;17.13;;
41883;SDS011;27566;50.930;5.328;2023-08-17T11:19:17;23.33;;;16.98;;
41883;SDS011;27566;50.930;5.328;2023-08-17T11:21:43;25.05;;;19.17;;
41883;SDS011;27566;50.930;5.328;2023-08-17T11:24:09;23.48;;;15.77;;
41883;SDS011;27566;50.930;5.328;2023-08-17T11:26:35;21.88;;;17.50;;
41883;SDS011;27566;50.930;5.328;2023-08-17T11:29:01;24.98;;;18.55;;
41883;SDS011;27566;50.930;5.328;2023-08-17T11:31:28;22.20;;;17.45;;
41883;SDS011;27566;50.930;5.328;2023-08-17T11:33:54;22.40;;;16.55;;
41883;SDS011;27566;50.930;5.328;2023-08-17T11:36:19;20.27;;;15.68;;
41883;SDS011;27566;50.930;5.328;2023-08-17T11:38:47;22.98;;;17.20;;
41883;SDS011;27566;50.930;5.328;2023-08-17T11:41:12;26.27;;;17.00;;
41883;SDS011;27566;50.930;5.328;2023-08-17T11:43:42;22.45;;;16.42;;
41883;SDS011;27566;50.930;5.328;2023-08-17T11:46:08;22.85;;;15.57;;
41883;SDS011;27566;50.930;5.328;2023-08-17T11:48:34;21.75;;;16.75;;
41883;SDS011;27566;50.930;5.328;2023-08-17T11:50:59;26.10;;;16.23;;
41883;SDS011;27566;50.930;5.328;2023-08-17T11:53:32;21.25;;;16.60;;
41883;SDS011;27566;50.930;5.328;2023-08-17T11:55:58;22.23;;;17.15;;
41883;SDS011;27566;50.930;5.328;2023-08-17T11:58:40;20.95;;;16.52;;
41883;SDS011;27566;50.930;5.328;2023-08-17T12:01:11;22.23;;;15.45;;
41883;SDS011;27566;50.930;5.328;2023-08-17T12:03:37;20.38;;;15.00;;
41883;SDS011;27566;50.930;5.328;2023-08-17T12:06:05;22.45;;;15.48;;
41883;SDS011;27566;50.930;5.328;2023-08-17T12:08:31;21.13;;;16.70;;
41883;SDS011;27566;50.930;5.328;2023-08-17T12:10:58;24.83;;;17.45;;
41883;SDS011;27566;50.930;5.328;2023-08-17T12:13:31;25.83;;;18.42;;
41883;SDS011;27566;50.930;5.328;2023-08-17T12:15:59;29.95;;;17.67;;
41883;SDS011;27566;50.930;5.328;2023-08-17T12:18:25;27.95;;;19.40;;
41883;SDS011;27566;50.930;5.328;2023-08-17T12:20:54;28.77;;;18.17;;
41883;SDS011;27566;50.930;5.328;2023-08-17T12:23:20;23.38;;;17.60;;
41883;SDS011;27566;50.930;5.328;2023-08-17T12:25:51;30.67;;;20.92;;
41883;SDS011;27566;50.930;5.328;2023-08-17T12:28:21;24.50;;;19.55;;
41883;SDS011;27566;50.930;5.328;2023-08-17T12:30:55;23.02;;;19.25;;
41883;SDS011;27566;50.930;5.328;2023-08-17T12:33:26;28.23;;;20.38;;
41883;SDS011;27566;50.930;5.328;2023-08-17T12:35:51;24.88;;;19.85;;
41883;SDS011;27566;50.930;5.328;2023-08-17T12:38:17;27.02;;;19.63;;
41883;SDS011;27566;50.930;5.328;2023-08-17T12:40:43;25.70;;;19.35;;
41883;SDS011;27566;50.930;5.328;2023-08-17T12:43:09;25.95;;;18.13;;
41883;SDS011;27566;50.930;5.328;2023-08-17T12:45:35;23.75;;;18.83;;
41883;SDS011;27566;50.930;5.328;2023-08-17T12:48:00;27.27;;;19.38;;
41883;SDS011;27566;50.930;5.328;2023-08-17T12:50:26;18.95;;;16.23;;
41883;SDS011;27566;50.930;5.328;2023-08-17T12:52:52;22.33;;;17.27;;
41883;SDS011;27566;50.930;5.328;2023-08-17T12:55:18;24.90;;;17.10;;
41883;SDS011;27566;50.930;5.328;2023-08-17T12:57:43;51.45;;;19.77;;
41883;SDS011;27566;50.930;5.328;2023-08-17T13:00:09;25.17;;;16.85;;
41883;SDS011;27566;50.930;5.328;2023-08-17T13:02:35;19.10;;;15.27;;
41883;SDS011;27566;50.930;5.328;2023-08-17T13:05:01;25.00;;;15.50;;
41883;SDS011;27566;50.930;5.328;2023-08-17T13:07:27;16.17;;;13.50;;
41883;SDS011;27566;50.930;5.328;2023-08-17T13:09:53;19.10;;;14.00;;
41883;SDS011;27566;50.930;5.328;2023-08-17T13:12:19;16.90;;;13.82;;
41883;SDS011;27566;50.930;5.328;2023-08-17T13:14:45;17.73;;;14.80;;
41883;SDS011;27566;50.930;5.328;2023-08-17T13:17:10;18.73;;;13.23;;
41883;SDS011;27566;50.930;5.328;2023-08-17T13:19:36;20.02;;;16.42;;
41883;SDS011;27566;50.930;5.328;2023-08-17T13:22:02;19.40;;;14.73;;
41883;SDS011;27566;50.930;5.328;2023-08-17T13:24:28;19.20;;;14.90;;
41883;SDS011;27566;50.930;5.328;2023-08-17T13:26:54;18.58;;;13.68;;
41883;SDS011;27566;50.930;5.328;2023-08-17T13:29:22;18.48;;;12.57;;
41883;SDS011;27566;50.930;5.328;2023-08-17T13:31:48;24.35;;;14.20;;
41883;SDS011;27566;50.930;5.328;2023-08-17T13:34:14;24.02;;;14.57;;
41883;SDS011;27566;50.930;5.328;2023-08-17T13:36:39;20.80;;;13.57;;
41883;SDS011;27566;50.930;5.328;2023-08-17T13:39:06;18.75;;;13.30;;
41883;SDS011;27566;50.930;5.328;2023-08-17T13:41:31;19.73;;;14.18;;
41883;SDS011;27566;50.930;5.328;2023-08-17T13:43:57;22.42;;;14.68;;
41883;SDS011;27566;50.930;5.328;2023-08-17T13:46:25;21.17;;;14.07;;
41883;SDS011;27566;50.930;5.328;2023-08-17T13:48:51;21.60;;;16.42;;
41883;SDS011;27566;50.930;5.328;2023-08-17T13:51:19;24.30;;;16.77;;
41883;SDS011;27566;50.930;5.328;2023-08-17T13:53:44;29.50;;;16.73;;
41883;SDS011;27566;50.930;5.328;2023-08-17T13:56:10;23.42;;;16.40;;
41883;SDS011;27566;50.930;5.328;2023-08-17T13:58:36;19.65;;;14.55;;
41883;SDS011;27566;50.930;5.328;2023-08-17T14:01:02;19.33;;;13.98;;
41883;SDS011;27566;50.930;5.328;2023-08-17T14:03:27;20.83;;;13.85;;
41883;SDS011;27566;50.930;5.328;2023-08-17T14:05:53;19.20;;;14.50;;
41883;SDS011;27566;50.930;5.328;2023-08-17T14:08:20;19.80;;;14.93;;
41883;SDS011;27566;50.930;5.328;2023-08-17T14:10:46;23.48;;;14.95;;
41883;SDS011;27566;50.930;5.328;2023-08-17T14:13:11;21.60;;;16.60;;
41883;SDS011;27566;50.930;5.328;2023-08-17T14:15:37;23.70;;;16.67;;
41883;SDS011;27566;50.930;5.328;2023-08-17T14:18:03;20.77;;;14.90;;
41883;SDS011;27566;50.930;5.328;2023-08-17T14:20:29;22.75;;;15.52;;
41883;SDS011;27566;50.930;5.328;2023-08-17T14:22:55;24.30;;;17.08;;
41883;SDS011;27566;50.930;5.328;2023-08-17T14:25:21;24.45;;;17.25;;
41883;SDS011;27566;50.930;5.328;2023-08-17T14:27:47;20.73;;;15.32;;
41883;SDS011;27566;50.930;5.328;2023-08-17T14:30:12;23.63;;;16.25;;
41883;SDS011;27566;50.930;5.328;2023-08-17T14:32:38;23.67;;;16.20;;
41883;SDS011;27566;50.930;5.328;2023-08-17T14:35:04;24.02;;;17.75;;
41883;SDS011;27566;50.930;5.328;2023-08-17T14:37:30;24.33;;;17.27;;
41883;SDS011;27566;50.930;5.328;2023-08-17T14:39:56;22.25;;;16.77;;
41883;SDS011;27566;50.930;5.328;2023-08-17T14:42:21;26.27;;;18.80;;